Time;durP1;ratioP1;P1;durP2;ratioP2;P2;SDS_P1;SDS_P2;PMS_P1;PMS_P2;Temp;Humidity;BMP_temperature;BMP_pressure;BME280_temperature;BME280_humidity;BME280_pressure;Samples;Min_cycle;Max_cycle;Signal;HPM_P1;HPM_P2
2021/03/06 00:00:17;;;;;;;1.58;0.70;;;;;;;18.79;46.68;103575.25;5055683;28;20036;-73
2021/03/06 00:02:43;;;;;;;1.15;0.70;;;;;;;18.75;46.51;103565.47;5054389;28;20028;-73
2021/03/06 00:05:10;;;;;;;1.73;0.93;;;;;;;18.80;46.47;103578.78;5052868;28;20039;-73
2021/03/06 00:07:36;;;;;;;2.10;1.20;;;;;;;18.76;46.72;103572.50;5055577;28;20031;-73
2021/03/06 00:10:04;;;;;;;3.95;1.77;;;;;;;18.75;46.78;103568.09;5051570;28;20028;-73
2021/03/06 00:12:30;;;;;;;2.90;0.95;;;;;;;18.75;46.49;103569.81;5054417;28;20085;-73
2021/03/06 00:14:55;;;;;;;1.80;0.90;;;;;;;18.75;46.61;103564.59;5054847;28;20032;-73
2021/03/06 00:17:21;;;;;;;1.75;0.88;;;;;;;18.71;46.60;103563.56;5054791;28;20386;-73
2021/03/06 00:19:46;;;;;;;1.77;1.05;;;;;;;18.71;46.53;103560.94;5070443;28;20090;-73
2021/03/06 00:22:11;;;;;;;2.45;1.10;;;;;;;18.68;46.33;103552.09;5055978;28;20398;-73
2021/03/06 00:24:37;;;;;;;1.52;0.93;;;;;;;18.67;46.27;103555.56;5057043;28;20036;-73
2021/03/06 00:27:02;;;;;;;1.45;0.90;;;;;;;18.66;46.38;103559.00;5075738;28;20115;-73
2021/03/06 00:29:28;;;;;;;0.90;0.70;;;;;;;18.64;46.56;103556.34;5070700;28;20052;-73
2021/03/06 00:31:53;;;;;;;1.20;0.85;;;;;;;18.68;46.59;103560.88;5068092;28;20039;-74
2021/03/06 00:34:18;;;;;;;1.95;1.00;;;;;;;18.68;46.48;103562.59;5038691;28;20390;-74
2021/03/06 00:36:44;;;;;;;1.80;0.90;;;;;;;18.69;46.42;103565.28;5055884;28;20021;-74
2021/03/06 00:39:09;;;;;;;1.50;1.00;;;;;;;18.67;46.49;103564.31;5073577;28;20036;-74
2021/03/06 00:41:35;;;;;;;1.80;0.90;;;;;;;18.68;46.71;103562.59;5054593;28;20085;-74
2021/03/06 00:44:01;;;;;;;1.77;0.65;;;;;;;18.64;46.42;103558.06;5074247;28;20083;-74
2021/03/06 00:46:27;;;;;;;1.20;0.90;;;;;;;18.65;46.56;103560.75;5072395;28;20032;-74
2021/03/06 00:48:52;;;;;;;1.35;0.88;;;;;;;18.59;46.48;103544.78;5056351;28;20024;-74
2021/03/06 00:51:18;;;;;;;1.92;1.10;;;;;;;18.60;46.57;103550.91;5074291;28;20031;-74
2021/03/06 00:53:44;;;;;;;2.42;1.02;;;;;;;18.60;46.60;103556.16;5074408;28;20024;-74
2021/03/06 00:56:09;;;;;;;1.25;1.00;;;;;;;18.64;46.41;103558.06;5021588;28;20497;-75
2021/03/06 00:58:34;;;;;;;1.02;0.68;;;;;;;18.64;46.56;103571.16;5073095;28;20032;-75
2021/03/06 01:01:00;;;;;;;1.38;0.70;;;;;;;18.57;46.52;103554.25;5053044;28;20044;-75
2021/03/06 01:03:26;;;;;;;1.55;0.90;;;;;;;18.57;46.39;103554.25;5040814;28;20025;-74
2021/03/06 01:05:52;;;;;;;1.60;0.95;;;;;;;18.57;46.67;103552.53;5019911;28;20101;-74
2021/03/06 01:08:17;;;;;;;1.70;0.70;;;;;;;18.59;46.74;103555.25;5054071;28;20025;-74
2021/03/06 01:10:45;;;;;;;1.70;1.00;;;;;;;18.58;46.66;103553.47;5054479;28;20025;-75
2021/03/06 01:13:13;;;;;;;1.95;0.95;;;;;;;18.52;46.49;103545.34;5073877;28;20036;-75
2021/03/06 01:15:39;;;;;;;1.42;1.00;;;;;;;18.54;46.37;103543.69;5073556;28;20024;-74
2021/03/06 01:18:07;;;;;;;1.92;1.00;;;;;;;18.55;46.64;103546.38;5055516;28;20043;-74
2021/03/06 01:20:33;;;;;;;1.42;0.90;;;;;;;18.55;46.39;103546.38;5049953;28;20024;-74
2021/03/06 01:22:59;;;;;;;1.63;0.70;;;;;;;18.57;46.38;103555.16;5036309;28;20434;-74
2021/03/06 01:25:24;;;;;;;1.35;0.80;;;;;;;18.51;46.48;103546.19;5052197;28;20036;-74
2021/03/06 01:27:50;;;;;;;1.30;0.80;;;;;;;18.52;46.45;103550.59;5070872;28;20029;-74
2021/03/06 01:30:17;;;;;;;1.33;0.85;;;;;;;18.51;46.52;103544.47;5055342;28;20115;-74
2021/03/06 01:32:42;;;;;;;1.27;0.73;;;;;;;18.49;46.38;103543.50;5072263;28;20062;-74
2021/03/06 01:35:09;;;;;;;1.73;0.93;;;;;;;18.51;46.50;103548.81;5031330;28;20478;-74
2021/03/06 01:37:35;;;;;;;1.58;1.10;;;;;;;18.52;46.32;103543.63;5032332;28;20037;-74
2021/03/06 01:40:06;;;;;;;2.92;1.70;;;;;;;18.54;46.45;103541.06;5054252;28;20033;-74
2021/03/06 01:42:31;;;;;;;1.38;0.80;;;;;;;18.52;46.31;103535.75;5071780;28;20059;-74
2021/03/06 01:44:57;;;;;;;1.58;1.08;;;;;;;18.52;46.23;103534.88;5073008;28;20060;-74
2021/03/06 01:47:22;;;;;;;2.10;0.80;;;;;;;18.51;46.28;103531.34;5051037;28;20389;-74
2021/03/06 01:49:47;;;;;;;1.65;1.00;;;;;;;18.51;46.24;103536.59;5069842;28;20555;-75
2021/03/06 01:52:14;;;;;;;3.65;1.00;;;;;;;18.48;46.35;103522.47;5053979;28;20534;-73
2021/03/06 01:54:40;;;;;;;3.00;0.93;;;;;;;18.47;46.33;103525.94;5052352;28;20035;-73
2021/03/06 01:57:06;;;;;;;1.10;0.80;;;;;;;18.50;46.56;103531.28;5036322;28;20071;-73
2021/03/06 01:59:31;;;;;;;2.28;1.25;;;;;;;18.49;46.26;103532.13;5071412;28;20063;-73
2021/03/06 02:01:57;;;;;;;3.38;1.13;;;;;;;18.42;46.31;103515.31;5071216;28;20060;-74
2021/03/06 02:04:22;;;;;;;2.03;1.25;;;;;;;18.48;46.26;103527.72;5070475;28;20478;-73
2021/03/06 02:06:47;;;;;;;3.85;1.15;;;;;;;18.44;46.18;103515.31;5073306;28;20463;-73
2021/03/06 02:09:13;;;;;;;1.67;1.10;;;;;;;18.43;46.20;103509.22;5055031;28;20119;-73
2021/03/06 02:11:50;;;;;;;2.17;0.98;;;;;;;18.42;46.38;103511.78;5037785;28;20118;-75
2021/03/06 02:14:48;;;;;;;1.63;1.05;;;;;;;18.46;46.21;103522.41;5071459;28;20065;-73
2021/03/06 02:17:43;;;;;;;1.40;0.95;;;;;;;18.44;46.07;103515.31;5043176;28;20112;-73
2021/03/06 02:20:39;;;;;;;1.08;0.70;;;;;;;18.45;46.29;103515.38;5060846;28;20047;-73
2021/03/06 02:23:27;;;;;;;1.13;0.90;;;;;;;18.45;46.20;103520.63;5049751;28;20376;-73
2021/03/06 02:26:07;;;;;;;1.40;0.60;;;;;;;18.46;45.80;103513.66;5050523;28;20096;-73
2021/03/06 02:28:51;;;;;;;1.15;0.90;;;;;;;18.44;46.02;103515.31;5068363;28;20024;-74
2021/03/06 02:31:16;;;;;;;0.85;0.57;;;;;;;18.44;46.20;103523.19;5069955;28;20044;-73
2021/03/06 02:33:50;;;;;;;1.17;0.82;;;;;;;18.38;46.20;103516.00;5068368;28;20406;-73
2021/03/06 02:36:20;;;;;;;1.33;0.80;;;;;;;18.39;46.09;103511.66;5072236;28;20107;-73
2021/03/06 02:38:48;;;;;;;2.97;1.08;;;;;;;18.42;45.90;103517.94;5071631;28;20055;-73
2021/03/06 02:41:14;;;;;;;1.40;0.93;;;;;;;18.43;46.09;103519.72;5071152;28;20024;-73
2021/03/06 02:43:41;;;;;;;2.10;1.05;;;;;;;18.37;46.07;103508.09;5074385;28;20131;-74
2021/03/06 02:46:07;;;;;;;2.47;0.85;;;;;;;18.38;46.01;103512.50;5074812;28;20497;-73
2021/03/06 02:48:34;;;;;;;2.10;1.05;;;;;;;18.36;46.09;103507.19;5076030;28;20462;-73
2021/03/06 02:51:00;;;;;;;3.85;1.02;;;;;;;18.39;46.11;103504.69;5058015;28;20540;-73
2021/03/06 02:53:25;;;;;;;1.52;0.90;;;;;;;18.39;46.06;103511.66;5075339;28;20036;-74
2021/03/06 02:55:51;;;;;;;0.85;0.73;;;;;;;18.38;45.94;103508.16;5077976;28;20115;-74
2021/03/06 02:58:25;;;;;;;1.55;0.98;;;;;;;18.40;46.11;103508.22;5073830;28;20029;-74
2021/03/06 03:01:01;;;;;;;1.30;0.80;;;;;;;18.39;45.96;103511.66;5063552;28;20372;-73
2021/03/06 03:03:45;;;;;;;2.13;1.52;;;;;;;18.39;45.89;103506.44;5075376;28;20036;-73
2021/03/06 03:06:22;;;;;;;1.23;0.80;;;;;;;18.36;46.11;103499.34;5056361;28;20033;-73
2021/03/06 03:08:57;;;;;;;2.58;1.20;;;;;;;18.33;46.15;103491.34;5056704;28;20091;-73
2021/03/06 03:11:31;;;;;;;1.98;1.10;;;;;;;18.31;46.11;103490.41;5075160;28;20020;-73
2021/03/06 03:13:58;;;;;;;3.22;1.55;;;;;;;18.35;45.89;103501.91;5057180;28;20036;-73
2021/03/06 03:16:31;;;;;;;1.35;0.85;;;;;;;18.28;46.29;103495.56;5070778;28;20066;-73
2021/03/06 03:19:03;;;;;;;1.88;0.90;;;;;;;18.31;45.98;103494.75;5072381;28;20036;-73
2021/03/06 03:21:33;;;;;;;4.13;0.77;;;;;;;18.33;46.13;103500.94;5074935;28;20034;-73
2021/03/06 03:24:03;;;;;;;1.70;1.00;;;;;;;18.31;45.92;103497.38;5075254;28;20028;-73
2021/03/06 03:26:30;;;;;;;1.70;1.10;;;;;;;18.33;46.11;103508.78;5072180;28;20025;-73
2021/03/06 03:28:57;;;;;;;0.93;0.55;;;;;;;18.32;46.21;103510.53;5074768;28;20024;-73
2021/03/06 03:31:26;;;;;;;1.50;1.05;;;;;;;18.27;46.06;103496.38;5054483;28;20475;-73
2021/03/06 03:33:52;;;;;;;1.30;0.80;;;;;;;18.25;46.26;103491.91;5038238;28;20062;-73
2021/03/06 03:36:20;;;;;;;1.67;0.90;;;;;;;18.24;46.06;103490.13;5057313;28;20029;-73
2021/03/06 03:38:46;;;;;;;2.92;1.20;;;;;;;18.29;46.21;103499.97;5055438;28;20032;-73
2021/03/06 03:41:12;;;;;;;1.35;0.95;;;;;;;18.29;45.82;103501.69;5056568;28;20028;-73
2021/03/06 03:43:39;;;;;;;2.47;1.00;;;;;;;18.24;46.08;103496.25;5057306;28;20048;-73
2021/03/06 03:46:05;;;;;;;1.17;0.85;;;;;;;18.29;46.00;103509.53;5072986;28;20025;-73
2021/03/06 03:48:32;;;;;;;3.58;0.90;;;;;;;18.27;46.17;103509.47;5072251;28;20052;-73
2021/03/06 03:51:00;;;;;;;3.13;0.95;;;;;;;18.19;45.95;103488.22;5054293;28;20032;-73
2021/03/06 03:53:25;;;;;;;1.00;0.88;;;;;;;18.25;45.95;103505.00;5056067;28;20028;-73
2021/03/06 03:55:51;;;;;;;1.77;1.00;;;;;;;18.27;46.00;103500.72;5071630;28;20493;-73
2021/03/06 03:58:17;;;;;;;1.98;0.98;;;;;;;18.22;46.09;103497.91;5074158;28;20039;-73
2021/03/06 04:00:42;;;;;;;2.53;1.48;;;;;;;18.24;46.05;103500.59;5039756;28;20025;-73
2021/03/06 04:03:09;;;;;;;2.10;1.10;;;;;;;18.24;45.79;103503.22;5055221;28;20033;-73
2021/03/06 04:05:35;;;;;;;2.75;1.13;;;;;;;18.21;45.96;103502.25;5072236;28;20025;-73
2021/03/06 04:08:01;;;;;;;1.90;1.10;;;;;;;18.24;46.29;103500.59;5039493;28;20478;-73
2021/03/06 04:10:28;;;;;;;1.75;1.08;;;;;;;18.17;45.98;103489.00;5056917;28;20036;-73
2021/03/06 04:12:55;;;;;;;1.50;1.00;;;;;;;18.23;45.92;103506.66;5072708;28;20381;-73
2021/03/06 04:15:22;;;;;;;2.42;1.58;;;;;;;18.19;45.90;103501.31;5073935;28;20031;-73
2021/03/06 04:17:48;;;;;;;1.10;0.75;;;;;;;18.16;46.04;103490.75;5039455;28;20544;-72
2021/03/06 04:20:16;;;;;;;2.80;1.25;;;;;;;18.17;46.17;103491.63;5070016;28;20131;-72
2021/03/06 04:22:41;;;;;;;0.85;0.75;;;;;;;18.17;45.96;103497.75;5074474;28;20024;-73
2021/03/06 04:25:08;;;;;;;1.33;0.70;;;;;;;18.20;46.11;103510.06;5040169;28;20029;-72
2021/03/06 04:27:34;;;;;;;1.25;0.93;;;;;;;18.18;45.96;103509.09;5073177;28;20029;-73
2021/03/06 04:30:00;;;;;;;1.77;0.93;;;;;;;18.20;45.90;103515.28;5073961;28;20032;-73
2021/03/06 04:32:26;;;;;;;2.03;1.25;;;;;;;18.19;45.97;103516.13;5056378;28;20040;-73
2021/03/06 04:34:51;;;;;;;1.90;1.00;;;;;;;18.10;45.88;103503.59;5073662;28;20051;-73
2021/03/06 04:37:17;;;;;;;1.42;0.90;;;;;;;18.14;45.85;103510.72;5039297;28;20059;-73
2021/03/06 04:39:42;;;;;;;1.77;0.98;;;;;;;18.17;45.92;103517.81;5055887;28;20024;-73
2021/03/06 04:42:07;;;;;;;1.70;0.98;;;;;;;18.13;45.95;103515.91;5074466;28;20107;-73
2021/03/06 04:44:33;;;;;;;2.92;1.00;;;;;;;18.11;45.90;103514.94;5071839;28;20502;-73
2021/03/06 04:47:02;;;;;;;1.45;1.10;;;;;;;18.11;45.80;103521.09;5038305;28;20021;-73
2021/03/06 04:49:27;;;;;;;2.15;1.00;;;;;;;18.14;45.95;103529.06;5054906;28;20056;-73
2021/03/06 04:51:52;;;;;;;2.80;1.10;;;;;;;18.15;45.97;103525.63;5073374;28;20364;-73
2021/03/06 04:54:18;;;;;;;2.35;1.00;;;;;;;18.14;45.98;103529.06;5069940;28;20442;-72
2021/03/06 04:56:43;;;;;;;1.85;1.27;;;;;;;18.13;45.93;103539.47;5072862;28;20049;-72
2021/03/06 04:59:08;;;;;;;2.53;1.27;;;;;;;18.11;45.95;103528.94;5068940;28;20033;-73
2021/03/06 05:01:34;;;;;;;2.45;1.15;;;;;;;18.09;45.85;103537.56;5038653;28;20123;-73
2021/03/06 05:03:59;;;;;;;1.75;0.95;;;;;;;18.12;45.95;103546.44;5054900;28;20470;-72
2021/03/06 05:06:24;;;;;;;1.88;1.08;;;;;;;18.08;46.23;103535.78;5072074;28;20051;-72
2021/03/06 05:08:50;;;;;;;1.65;1.08;;;;;;;18.10;45.94;103540.25;5073396;28;20036;-73
2021/03/06 05:11:15;;;;;;;1.08;0.77;;;;;;;18.09;45.82;103541.06;5073624;28;21365;-73
2021/03/06 05:13:40;;;;;;;2.40;1.15;;;;;;;18.09;45.92;103548.94;5067344;28;20028;-73
2021/03/06 05:16:06;;;;;;;2.00;1.48;;;;;;;18.06;45.75;103542.66;5055578;28;20397;-74
2021/03/06 05:18:32;;;;;;;1.15;0.80;;;;;;;18.04;45.92;103532.16;5054887;28;20085;-73
2021/03/06 05:20:58;;;;;;;1.70;1.00;;;;;;;18.08;45.99;103548.88;5032613;28;20040;-73
2021/03/06 05:23:25;;;;;;;1.50;1.00;;;;;;;18.04;45.91;103540.03;5055860;28;20031;-73
2021/03/06 05:25:50;;;;;;;1.75;0.90;;;;;;;18.08;45.98;103549.75;5067029;28;20024;-73
2021/03/06 05:28:22;;;;;;;1.92;1.00;;;;;;;18.06;45.79;103548.81;5072581;28;20409;-74
2021/03/06 05:30:49;;;;;;;1.98;1.08;;;;;;;18.06;46.14;103547.91;5043332;28;20021;-72
2021/03/06 05:33:15;;;;;;;2.63;1.10;;;;;;;18.02;45.89;103544.28;5063818;28;20029;-72
2021/03/06 05:35:41;;;;;;;1.75;1.10;;;;;;;18.05;46.03;103557.47;5021334;28;20494;-73
2021/03/06 05:38:06;;;;;;;2.22;1.05;;;;;;;17.99;45.79;103548.50;5073229;28;20032;-73
2021/03/06 05:40:37;;;;;;;3.15;1.70;;;;;;;18.05;45.72;103553.97;5036445;28;20024;-73
2021/03/06 05:43:03;;;;;;;1.52;1.08;;;;;;;18.04;45.77;103555.72;5049809;28;20044;-73
2021/03/06 05:45:29;;;;;;;2.03;1.10;;;;;;;18.01;45.71;103549.47;5051935;28;20489;-73
2021/03/06 05:47:56;;;;;;;2.03;1.10;;;;;;;18.01;45.88;103555.59;5051589;28;20029;-73
2021/03/06 05:50:21;;;;;;;1.80;1.20;;;;;;;17.97;45.92;103550.16;5050422;28;20021;-73
2021/03/06 05:52:48;;;;;;;1.40;0.90;;;;;;;17.98;45.84;103552.84;5052659;28;20025;-71
2021/03/06 05:55:16;;;;;;;1.20;0.80;;;;;;;17.99;46.09;103549.41;5033594;28;20499;-71
2021/03/06 05:57:42;;;;;;;2.13;1.35;;;;;;;18.03;45.85;103563.53;5048743;28;20123;-71
2021/03/06 06:00:08;;;;;;;1.90;1.20;;;;;;;17.97;45.90;103561.53;5064746;28;20590;-71
2021/03/06 06:02:35;;;;;;;1.60;1.10;;;;;;;17.96;46.01;103551.88;5050064;28;20025;-71
2021/03/06 06:05:01;;;;;;;2.97;1.25;;;;;;;18.00;45.81;103564.28;5012172;28;20387;-72
2021/03/06 06:07:27;;;;;;;2.05;1.02;;;;;;;18.00;45.87;103561.66;5059557;28;20075;-71
2021/03/06 06:09:54;;;;;;;2.03;1.20;;;;;;;17.95;46.02;103557.06;5049044;28;20056;-71
2021/03/06 06:12:19;;;;;;;1.52;1.08;;;;;;;17.96;45.96;103562.38;5048898;28;20379;-72
2021/03/06 06:14:45;;;;;;;2.10;1.08;;;;;;;17.90;45.98;103549.03;5050646;28;20033;-72
2021/03/06 06:17:11;;;;;;;3.05;1.20;;;;;;;17.92;45.88;103562.16;5048426;28;20119;-71
2021/03/06 06:19:38;;;;;;;1.52;1.15;;;;;;;17.91;46.01;103557.78;5050466;28;20067;-71
2021/03/06 06:22:23;;;;;;;1.88;1.00;;;;;;;17.97;45.84;103569.38;5047981;28;20032;-71
2021/03/06 06:24:52;;;;;;;2.00;1.20;;;;;;;17.91;45.74;103563.91;5032485;28;20069;-72
2021/03/06 06:27:35;;;;;;;1.20;1.00;;;;;;;17.95;45.91;103578.00;5050625;28;20044;-72
2021/03/06 06:30:11;;;;;;;1.75;0.90;;;;;;;17.94;45.83;103579.72;5045408;28;20086;-71
2021/03/06 06:32:44;;;;;;;1.67;1.13;;;;;;;17.96;45.69;103580.69;5047263;28;20079;-72
2021/03/06 06:35:12;;;;;;;1.08;0.98;;;;;;;17.91;45.87;103578.72;5047262;28;20025;-72
2021/03/06 06:37:37;;;;;;;1.40;1.00;;;;;;;17.96;45.81;103590.28;5049741;28;20037;-71
2021/03/06 06:40:18;;;;;;;2.15;1.10;;;;;;;17.96;45.81;103587.66;5047795;28;20387;-71
2021/03/06 06:42:43;;;;;;;1.42;0.90;;;;;;;17.92;45.58;103585.72;5056364;28;20044;-72
2021/03/06 06:45:09;;;;;;;2.05;1.02;;;;;;;17.90;45.87;103584.81;5051956;28;20394;-72
2021/03/06 06:47:40;;;;;;;1.95;1.17;;;;;;;17.94;45.66;103595.44;5053472;28;20025;-72
2021/03/06 06:50:08;;;;;;;1.60;1.10;;;;;;;17.95;45.69;103599.84;5054007;28;20496;-71
2021/03/06 06:52:39;;;;;;;2.08;1.05;;;;;;;17.93;45.74;103587.50;5070062;28;20597;-71
2021/03/06 06:55:10;;;;;;;1.90;1.27;;;;;;;17.94;45.66;103592.81;5044259;28;20028;-72
2021/03/06 06:57:49;;;;;;;2.10;1.40;;;;;;;17.93;45.67;103593.66;5068214;28;20032;-71
2021/03/06 07:00:15;;;;;;;2.00;0.95;;;;;;;17.91;45.78;103594.44;5060494;28;20016;-72
2021/03/06 07:02:55;;;;;;;1.75;1.20;;;;;;;17.93;45.76;103611.97;5052163;28;20033;-72
2021/03/06 07:05:37;;;;;;;2.75;1.42;;;;;;;17.87;45.56;103598.66;5049596;28;20027;-71
2021/03/06 07:08:06;;;;;;;2.28;1.40;;;;;;;17.92;46.08;103609.28;5052251;28;20024;-71
2021/03/06 07:10:37;;;;;;;1.67;1.20;;;;;;;17.89;46.29;103610.09;5050871;28;20493;-69
2021/03/06 07:13:09;;;;;;;6.13;1.95;;;;;;;17.92;46.13;103612.81;5052538;28;20033;-69
2021/03/06 07:15:37;;;;;;;2.33;1.20;;;;;;;18.08;45.86;103611.72;5069285;28;20028;-71
2021/03/06 07:18:08;;;;;;;4.28;1.60;;;;;;;18.13;46.18;103605.84;5070467;28;20513;-71
2021/03/06 07:20:38;;;;;;;4.82;1.67;;;;;;;18.16;46.46;103611.22;5071318;28;20085;-72
2021/03/06 07:23:13;;;;;;;3.40;1.50;;;;;;;18.16;46.16;103599.84;5070927;28;20493;-71
2021/03/06 07:25:39;;;;;;;5.35;2.13;;;;;;;18.25;46.37;103608.06;5067344;28;20029;-71
2021/03/06 07:28:05;;;;;;;5.07;1.73;;;;;;;18.25;46.15;103609.78;5037699;28;20036;-71
2021/03/06 07:30:30;;;;;;;4.75;1.60;;;;;;;18.23;46.50;103612.34;5057105;28;20021;-71
2021/03/06 07:33:00;;;;;;;3.40;1.63;;;;;;;18.27;46.47;103619.50;5047621;28;20043;-71
2021/03/06 07:35:25;;;;;;;5.35;1.33;;;;;;;18.31;46.22;103612.63;5057228;28;20058;-71
2021/03/06 07:37:58;;;;;;;3.78;1.40;;;;;;;18.30;46.25;103619.63;5074651;28;20028;-71
2021/03/06 07:40:32;;;;;;;1.90;1.40;;;;;;;18.25;46.59;103608.06;5073676;28;20025;-71
2021/03/06 07:43:00;;;;;;;3.75;1.70;;;;;;;18.36;46.28;103618.94;5056983;28;20098;-71
2021/03/06 07:45:28;;;;;;;6.72;3.55;;;;;;;18.34;46.29;103607.50;5070184;28;20028;-71
2021/03/06 07:48:14;;;;;;;3.45;1.75;;;;;;;18.36;46.40;103618.94;5067510;28;20078;-71
2021/03/06 07:50:48;;;;;;;2.05;1.30;;;;;;;18.39;46.43;103619.09;5070758;28;20031;-71
2021/03/06 07:53:15;;;;;;;4.47;1.73;;;;;;;18.40;46.39;103598.19;5066480;28;20036;-71
2021/03/06 07:55:41;;;;;;;2.50;1.23;;;;;;;18.44;46.21;103615.78;5069635;28;20111;-72
2021/03/06 07:58:09;;;;;;;5.80;1.85;;;;;;;18.41;46.26;103615.69;5057208;28;20123;-72
2021/03/06 08:00:38;;;;;;;2.85;1.25;;;;;;;18.46;46.29;103603.66;5066661;28;20020;-73
2021/03/06 08:03:39;;;;;;;4.55;1.42;;;;;;;18.50;46.30;103610.81;5070779;28;20091;-74
2021/03/06 08:06:04;;;;;;;3.45;1.65;;;;;;;18.50;46.25;103607.28;5056444;28;20398;-74
2021/03/06 08:08:32;;;;;;;3.33;1.58;;;;;;;18.51;46.28;103612.59;5075060;28;20027;-74
2021/03/06 08:11:14;;;;;;;4.65;2.13;;;;;;;18.56;46.24;103612.78;5075197;28;20055;-72
2021/03/06 08:13:46;;;;;;;4.13;1.77;;;;;;;18.60;46.18;103619.03;5072560;28;20032;-75
2021/03/06 08:16:21;;;;;;;3.20;1.60;;;;;;;18.59;46.35;103614.63;5073877;28;20028;-72
2021/03/06 08:19:08;;;;;;;2.70;1.20;;;;;;;18.68;46.17;103618.53;5057222;28;20043;-73
2021/03/06 08:21:38;;;;;;;3.05;1.65;;;;;;;18.73;46.17;103623.91;5056687;28;20082;-72
2021/03/06 08:24:15;;;;;;;4.22;1.38;;;;;;;18.73;46.22;103619.56;5057407;28;20386;-71
2021/03/06 08:26:41;;;;;;;3.92;1.30;;;;;;;18.70;46.29;103613.31;5071917;28;20131;-72
2021/03/06 08:29:22;;;;;;;2.22;1.00;;;;;;;18.76;46.50;103617.06;5053468;28;20033;-73
2021/03/06 08:32:01;;;;;;;3.53;1.50;;;;;;;18.80;46.59;103616.38;5058015;28;20032;-71
2021/03/06 08:34:38;;;;;;;3.83;2.25;;;;;;;18.81;46.28;103623.41;5068782;28;20032;-73
2021/03/06 08:37:16;;;;;;;2.95;1.38;;;;;;;18.88;46.13;103622.78;5066750;28;20028;-73
2021/03/06 08:39:52;;;;;;;4.63;1.95;;;;;;;18.80;46.46;103616.38;5073228;28;20497;-73
2021/03/06 08:42:21;;;;;;;2.38;1.20;;;;;;;18.87;46.28;103627.97;5066094;28;20029;-73
2021/03/06 08:44:47;;;;;;;3.08;1.30;;;;;;;18.89;46.36;103623.66;5071463;28;20032;-74
2021/03/06 08:47:31;;;;;;;2.88;1.17;;;;;;;18.91;46.48;103620.28;5074568;28;20077;-73
2021/03/06 08:49:58;;;;;;;3.05;1.67;;;;;;;18.88;46.60;103622.78;5073359;28;20070;-74
2021/03/06 08:52:27;;;;;;;2.83;1.17;;;;;;;18.88;46.31;103614.03;5056635;28;20048;-73
2021/03/06 08:54:53;;;;;;;2.58;1.17;;;;;;;19.00;46.35;103630.22;5073945;28;20123;-73
2021/03/06 08:57:32;;;;;;;2.58;1.88;;;;;;;19.01;46.17;103626.75;5071233;28;20100;-73
2021/03/06 09:00:00;;;;;;;2.85;1.38;;;;;;;19.02;46.01;103625.91;5070502;28;20020;-73
2021/03/06 09:02:30;;;;;;;3.05;1.80;;;;;;;19.02;45.89;103628.53;5069410;28;20390;-74
2021/03/06 09:05:06;;;;;;;4.10;1.30;;;;;;;19.02;46.04;103623.28;5072737;28;20544;-73
2021/03/06 09:07:32;;;;;;;1.80;1.20;;;;;;;19.04;45.81;103634.75;5052705;28;20020;-72
2021/03/06 09:10:15;;;;;;;2.58;1.10;;;;;;;19.05;45.91;103627.75;5055000;28;20115;-74
2021/03/06 09:12:41;;;;;;;2.50;1.15;;;;;;;19.10;45.71;103628.81;5059135;28;20020;-72
2021/03/06 09:15:09;;;;;;;2.45;1.27;;;;;;;19.03;45.81;103621.56;5073071;28;20576;-72
2021/03/06 09:17:35;;;;;;;5.07;1.27;;;;;;;19.05;45.62;103635.63;5055185;28;20051;-72
2021/03/06 09:20:06;;;;;;;3.13;1.55;;;;;;;19.03;45.86;103629.44;5072758;28;20522;-72
2021/03/06 09:22:45;;;;;;;2.63;1.20;;;;;;;19.10;45.83;103634.06;5072681;28;20043;-72
2021/03/06 09:25:13;;;;;;;2.83;1.48;;;;;;;19.10;45.96;103641.91;5052645;28;20082;-72
2021/03/06 09:27:44;;;;;;;2.03;1.00;;;;;;;19.11;45.78;103633.22;5053680;28;20024;-72
2021/03/06 09:30:32;;;;;;;1.05;0.85;;;;;;;19.11;45.70;103634.09;5071609;28;20048;-72
2021/03/06 09:32:58;;;;;;;2.17;1.02;;;;;;;19.10;45.79;103636.69;5049351;28;20024;-72
2021/03/06 09:35:24;;;;;;;3.00;0.80;;;;;;;19.07;45.94;103626.09;5045790;28;20056;-72
2021/03/06 09:38:03;;;;;;;1.55;0.93;;;;;;;19.20;45.59;103636.19;5036743;28;20513;-71
2021/03/06 09:40:37;;;;;;;1.73;1.00;;;;;;;19.15;45.42;103624.63;5070922;28;20059;-72
2021/03/06 09:43:02;;;;;;;3.55;0.90;;;;;;;19.17;45.77;103628.22;5071996;28;20047;-74
2021/03/06 09:45:27;;;;;;;3.05;1.42;;;;;;;19.19;45.60;103632.69;5069493;28;20040;-73
2021/03/06 09:48:02;;;;;;;2.45;1.20;;;;;;;19.22;45.70;103624.00;5052971;28;20027;-73
2021/03/06 09:50:27;;;;;;;1.48;0.80;;;;;;;19.20;45.63;103618.72;5068102;28;20037;-73
2021/03/06 09:52:53;;;;;;;1.60;0.90;;;;;;;19.13;45.64;103615.81;5060860;28;20070;-73
2021/03/06 09:55:19;;;;;;;2.55;0.75;;;;;;;19.10;45.71;103607.81;5050109;28;20715;-73
2021/03/06 09:57:44;;;;;;;1.85;1.20;;;;;;;19.13;45.95;103616.72;5064984;28;20036;-73
2021/03/06 10:00:24;;;;;;;1.95;1.00;;;;;;;19.15;46.24;103620.28;5071582;28;20024;-73
2021/03/06 10:02:52;;;;;;;1.40;0.80;;;;;;;19.12;45.48;103608.78;5071426;28;20059;-73
2021/03/06 10:05:24;;;;;;;1.27;0.90;;;;;;;19.11;46.14;103601.75;5070484;28;20032;-73
2021/03/06 10:07:51;;;;;;;2.25;1.20;;;;;;;19.14;46.13;103605.38;5070959;28;20040;-73
2021/03/06 10:10:21;;;;;;;1.38;0.93;;;;;;;19.13;45.90;103608.84;5070290;28;20107;-73
2021/03/06 10:12:46;;;;;;;1.50;0.90;;;;;;;19.15;46.11;103608.91;5052438;28;20116;-73
2021/03/06 10:15:13;;;;;;;1.95;0.90;;;;;;;19.14;46.22;103604.47;5036878;28;20135;-74
2021/03/06 10:17:39;;;;;;;2.88;1.33;;;;;;;19.12;46.01;103599.19;5052059;28;20082;-73
2021/03/06 10:20:05;;;;;;;3.00;1.13;;;;;;;19.16;46.12;103600.19;5054285;28;20052;-74
2021/03/06 10:22:43;;;;;;;1.48;1.08;;;;;;;19.14;46.38;103601.84;5070458;28;20028;-72
2021/03/06 10:25:09;;;;;;;2.80;0.90;;;;;;;19.16;46.26;103594.94;5068344;28;20452;-72
2021/03/06 10:27:46;;;;;;;3.17;1.02;;;;;;;19.22;46.29;103606.53;5044520;28;20036;-72
2021/03/06 10:30:27;;;;;;;1.35;0.70;;;;;;;19.22;46.30;103603.91;5052690;28;20082;-72
2021/03/06 10:32:53;;;;;;;1.73;1.08;;;;;;;19.19;46.55;103595.97;5067241;28;20218;-72
2021/03/06 10:35:35;;;;;;;1.55;0.98;;;;;;;19.21;46.36;103602.13;5071654;28;20028;-72
2021/03/06 10:38:02;;;;;;;1.35;0.60;;;;;;;19.24;46.43;103609.22;5036952;28;20033;-72
2021/03/06 10:40:46;;;;;;;1.70;0.70;;;;;;;19.24;46.59;103602.25;5054387;28;20032;-72
2021/03/06 10:43:23;;;;;;;;;;;;;;;19.26;46.46;103604.91;5071177;28;20135;-72
2021/03/06 10:45:49;;;;;;;1.65;0.80;;;;;;;19.23;46.48;103597.81;5071083;28;19916;-72
2021/03/06 10:48:30;;;;;;;1.13;0.50;;;;;;;19.27;46.65;103604.97;5053994;28;20021;-73
2021/03/06 10:50:57;;;;;;;1.27;0.90;;;;;;;19.26;46.65;103595.31;5051486;28;20041;-72
2021/03/06 10:53:23;;;;;;;3.17;1.10;;;;;;;19.30;46.60;103608.56;5053371;28;20472;-72
2021/03/06 10:55:51;;;;;;;1.40;0.82;;;;;;;19.26;46.59;103600.56;5054265;28;20034;-72
2021/03/06 10:58:17;;;;;;;0.90;0.60;;;;;;;19.27;46.52;103599.72;5072280;28;20082;-72
2021/03/06 11:00:45;;;;;;;0.82;0.68;;;;;;;19.28;46.45;103592.75;5053546;28;20032;-72
2021/03/06 11:03:12;;;;;;;1.20;0.63;;;;;;;19.33;46.37;103612.19;5072980;28;20027;-72
2021/03/06 11:05:39;;;;;;;2.80;0.70;;;;;;;19.30;46.38;103592.81;5075465;28;20367;-78
2021/03/06 11:08:31;;;;;;;1.65;0.70;;;;;;;19.35;46.42;103596.47;5035677;28;20032;-72
2021/03/06 11:10:56;;;;;;;1.98;0.80;;;;;;;19.31;46.45;103587.63;5069430;28;20040;-73
2021/03/06 11:13:21;;;;;;;1.45;0.70;;;;;;;19.32;46.36;103581.53;5063076;28;20370;-73
2021/03/06 11:15:52;;;;;;;2.13;0.85;;;;;;;19.31;45.85;103579.75;5057646;28;20165;-72
2021/03/06 11:18:19;;;;;;;1.77;0.82;;;;;;;19.40;46.60;103593.19;5074364;28;20032;-73
2021/03/06 11:20:45;;;;;;;1.60;0.60;;;;;;;19.41;46.56;103589.72;5061405;28;20020;-73
2021/03/06 11:23:11;;;;;;;1.88;0.82;;;;;;;19.41;46.89;103587.09;5075392;28;20029;-73
2021/03/06 11:25:36;;;;;;;3.17;0.90;;;;;;;19.38;46.83;103580.84;5082866;28;20081;-73
2021/03/06 11:28:05;;;;;;;2.33;1.02;;;;;;;19.38;46.71;103579.09;5057831;28;20063;-73
2021/03/06 11:30:42;;;;;;;2.45;0.68;;;;;;;19.37;46.95;103577.31;5058009;28;20020;-73
2021/03/06 11:33:09;;;;;;;1.45;0.60;;;;;;;19.41;47.19;103587.09;5057222;28;20142;-73